DTMB/MIR METAR and TAF weather

Enter ICAO airport designator
Station Type Date Time Source
DTMB METAR 2018/10/21 03:30 UTC NOAA

DTMB 210330Z 27005KT 5000 SCT016 20/19 Q1019


Station Type Date Time Source
DTMB Decoded METAR 2018/10/21 03:30 UTC NOAA

Habib Bourguiba , Tunisia (DTMB) 35-46N 010-45E
Oct 20, 2018 - 11:30 PM EDT / 2018.10.21 0330 UTC
Wind: from the W (270 degrees) at 6 MPH (5 KT):0
Visibility: 3 mile(s):0
Sky conditions: partly cloudy
Temperature: 68 F (20 C)
Dew Point: 66 F (19 C)
Relative Humidity: 93%
Pressure (altimeter): 30.09 in. Hg (1019 hPa)
ob: DTMB 210330Z 27005KT 5000 SCT016 20/19 Q1019
cycle: 3

Station Type Date Time Source
DTMB TAF 2018/10/20 18:42 UTC NOAA

TAF TAF DTMB 201700Z 2018/2118 06006KT 9999 SCT020 PROB40 2104/2107 3000 BR


Example: see airport list